Time;durP1;ratioP1;P1;durP2;ratioP2;P2;SDS_P1;SDS_P2;PMS_P1;PMS_P2;Temp;Humidity;BMP_temperature;BMP_pressure;BME280_temperature;BME280_humidity;BME280_pressure;Samples;Min_cycle;Max_cycle;Signal;HPM_P1;HPM_P2
2023/08/27 00:01:12;;;;;;;9.57;4.75;;;18.30;57.60;;;;;;5031837;28;20387;-70
2023/08/27 00:03:38;;;;;;;9.20;4.33;;;18.20;58.10;;;;;;5031402;28;20375;-71
2023/08/27 00:06:03;;;;;;;10.27;5.50;;;18.20;61.70;;;;;;5030718;28;20870;-71
2023/08/27 00:08:29;;;;;;;11.50;5.17;;;18.20;55.40;;;;;;5031252;28;20391;-71
2023/08/27 00:10:59;;;;;;;12.40;4.40;;;18.30;36.90;;;;;;5030882;28;20465;-71
2023/08/27 00:13:24;;;;;;;8.45;4.38;;;18.30;26.70;;;;;;5030602;28;20407;-71
2023/08/27 00:15:50;;;;;;;8.50;3.97;;;18.20;43.00;;;;;;5030895;28;20449;-71
2023/08/27 00:18:15;;;;;;;11.70;4.40;;;18.20;73.90;;;;;;5020949;28;20435;-70
2023/08/27 00:20:41;;;;;;;9.97;4.10;;;18.10;93.70;;;;;;5011269;28;20397;-70
2023/08/27 00:23:11;;;;;;;8.33;4.50;;;18.10;94.30;;;;;;5011284;28;20401;-71
2023/08/27 00:25:37;;;;;;;9.43;5.57;;;18.10;93.00;;;;;;5030734;28;20406;-71
2023/08/27 00:28:03;;;;;;;12.48;5.05;;;18.00;99.90;;;;;;5031271;28;20399;-71
2023/08/27 00:30:28;;;;;;;11.00;5.40;;;18.10;99.90;;;;;;5031024;28;20461;-70
2023/08/27 00:32:54;;;;;;;9.90;5.30;;;18.10;99.90;;;;;;5030702;28;20963;-71
2023/08/27 00:35:19;;;;;;;8.67;4.67;;;18.10;99.90;;;;;;5031321;28;20403;-71
2023/08/27 00:37:45;;;;;;;10.13;5.50;;;18.20;92.10;;;;;;5031255;28;20426;-71
2023/08/27 00:40:10;;;;;;;12.38;7.00;;;18.00;99.90;;;;;;5031075;28;20406;-71
2023/08/27 00:42:36;;;;;;;10.57;6.85;;;17.90;99.90;;;;;;5030471;28;20415;-70
2023/08/27 00:45:03;;;;;;;10.43;5.87;;;17.90;99.90;;;;;;5030776;28;20384;-71
2023/08/27 00:47:30;;;;;;;10.50;5.18;;;17.90;99.90;;;;;;5030627;28;20398;-71
2023/08/27 00:49:56;;;;;;;10.70;5.78;;;18.00;99.90;;;;;;5030358;28;20394;-70
2023/08/27 00:52:22;;;;;;;9.27;5.10;;;18.10;99.90;;;;;;5030847;28;20387;-71
2023/08/27 00:54:50;;;;;;;9.43;4.55;;;18.10;99.90;;;;;;5030014;28;20431;-71
2023/08/27 00:57:17;;;;;;;9.60;4.60;;;18.10;99.90;;;;;;5029405;28;20450;-71
2023/08/27 00:59:44;;;;;;;9.35;4.18;;;18.10;99.90;;;;;;5030844;28;20863;-70
2023/08/27 01:02:10;;;;;;;9.10;4.23;;;18.10;99.90;;;;;;5030256;28;20409;-70
2023/08/27 01:04:35;;;;;;;8.48;4.20;;;18.00;99.90;;;;;;5018142;28;20745;-71
2023/08/27 01:07:10;;;;;;;11.30;4.90;;;18.00;99.90;;;;;;5010638;28;20491;-71
2023/08/27 01:09:55;;;;;;;9.82;5.00;;;18.10;99.90;;;;;;5009556;28;20437;-71
2023/08/27 01:12:35;;;;;;;8.50;4.70;;;18.20;99.90;;;;;;4992443;28;20907;-71
2023/08/27 01:15:03;;;;;;;10.00;5.60;;;18.30;99.90;;;;;;5023066;28;20501;-71
2023/08/27 01:17:31;;;;;;;9.32;4.40;;;18.20;99.90;;;;;;5029892;28;20415;-71
2023/08/27 01:19:57;;;;;;;8.52;3.75;;;18.30;99.90;;;;;;5030167;28;20387;-71
2023/08/27 01:22:22;;;;;;;11.00;4.20;;;18.40;99.90;;;;;;5029376;28;20486;-71
2023/08/27 01:24:48;;;;;;;11.67;4.80;;;18.50;99.90;;;;;;5029775;28;20399;-71
2023/08/27 01:27:26;;;;;;;9.10;4.40;;;18.50;99.90;;;;;;5030636;28;20399;-71
2023/08/27 01:30:05;;;;;;;9.25;4.40;;;18.50;99.90;;;;;;5012037;28;20431;-71
2023/08/27 01:32:43;;;;;;;13.30;5.28;;;18.50;97.40;;;;;;5029631;28;20393;-71
2023/08/27 01:35:11;;;;;;;8.30;4.10;;;18.50;99.90;;;;;;5027929;28;20414;-70
2023/08/27 01:37:37;;;;;;;9.43;5.18;;;18.40;99.90;;;;;;5029126;28;20980;-71
2023/08/27 01:40:07;;;;;;;9.13;4.63;;;18.40;91.30;;;;;;5029591;28;20390;-71
2023/08/27 01:42:35;;;;;;;11.88;5.78;;;18.50;99.90;;;;;;5025082;28;20403;-71
2023/08/27 01:45:01;;;;;;;10.43;5.05;;;18.60;99.90;;;;;;5029578;28;20952;-71
2023/08/27 01:47:26;;;;;;;10.13;5.15;;;18.70;94.10;;;;;;5029252;28;20482;-71
2023/08/27 01:49:52;;;;;;;9.38;4.05;;;18.80;72.90;;;;;;5029438;28;20427;-71
2023/08/27 01:52:17;;;;;;;10.85;4.30;;;18.70;62.60;;;;;;5029329;28;20467;-71
2023/08/27 01:54:43;;;;;;;9.70;4.20;;;18.60;62.70;;;;;;5028481;28;20445;-71
2023/08/27 01:57:08;;;;;;;9.90;5.10;;;18.50;79.10;;;;;;5029337;28;20437;-71
2023/08/27 01:59:34;;;;;;;8.33;4.40;;;18.40;91.90;;;;;;5029325;28;20395;-71
2023/08/27 02:02:00;;;;;;;9.47;4.40;;;18.50;96.30;;;;;;5028724;28;20407;-71
2023/08/27 02:04:25;;;;;;;9.52;4.82;;;18.50;90.50;;;;;;5029274;28;20394;-71
2023/08/27 02:06:51;;;;;;;8.40;3.90;;;18.50;57.90;;;;;;5029151;28;20965;-71
2023/08/27 02:09:16;;;;;;;9.93;4.90;;;18.50;61.70;;;;;;5010050;28;20871;-71
2023/08/27 02:11:44;;;;;;;10.10;4.47;;;18.50;91.40;;;;;;5009788;28;20412;-71
2023/08/27 02:14:09;;;;;;;10.35;4.85;;;18.60;63.50;;;;;;5009641;28;20736;-71
2023/08/27 02:16:35;;;;;;;9.47;4.47;;;18.60;54.30;;;;;;5021424;28;20410;-72
2023/08/27 02:19:01;;;;;;;10.63;5.40;;;18.60;47.20;;;;;;5027618;28;20406;-71
2023/08/27 02:21:26;;;;;;;8.60;4.47;;;18.60;68.20;;;;;;5027330;28;20391;-71
2023/08/27 02:23:52;;;;;;;11.70;4.83;;;18.70;41.20;;;;;;5028456;28;20391;-71
2023/08/27 02:26:17;;;;;;;8.90;4.80;;;18.60;68.60;;;;;;5029170;28;20441;-70
2023/08/27 02:28:44;;;;;;;10.63;5.00;;;18.60;97.90;;;;;;5029192;28;20465;-71
2023/08/27 02:31:09;;;;;;;12.35;5.63;;;18.60;99.90;;;;;;5028789;28;20740;-71
2023/08/27 02:33:35;;;;;;;10.63;5.30;;;18.60;88.90;;;;;;5029132;28;20409;-71
2023/08/27 02:36:01;;;;;;;8.75;5.10;;;18.70;56.50;;;;;;5028788;28;20398;-71
2023/08/27 02:38:26;;;;;;;10.00;4.78;;;18.80;27.20;;;;;;5028487;28;20489;-71
2023/08/27 02:40:52;;;;;;;10.67;5.30;;;18.70;1.80;;;;;;5029084;28;20403;-71
2023/08/27 02:43:17;;;;;;;10.93;5.37;;;18.50;32.70;;;;;;5028901;28;20904;-71
2023/08/27 02:45:43;;;;;;;13.10;4.93;;;18.40;78.40;;;;;;5029119;28;20466;-71
2023/08/27 02:48:08;;;;;;;10.38;5.20;;;18.10;99.90;;;;;;5029100;28;20399;-70
2023/08/27 02:50:34;;;;;;;14.18;5.20;;;18.10;99.90;;;;;;5011525;28;20764;-70
2023/08/27 02:53:00;;;;;;;11.15;5.32;;;18.10;99.90;;;;;;5008817;28;20627;-71
2023/08/27 02:55:31;;;;;;;10.73;4.67;;;18.10;99.90;;;;;;5009134;28;20872;-71
2023/08/27 02:58:00;;;;;;;10.10;4.57;;;18.10;99.90;;;;;;5008822;28;20425;-71
2023/08/27 03:00:26;;;;;;;10.63;5.18;;;18.30;99.90;;;;;;5008786;28;20872;-71
2023/08/27 03:02:52;;;;;;;10.77;5.70;;;18.30;99.90;;;;;;5024937;28;20430;-71
2023/08/27 03:05:18;;;;;;;10.48;5.43;;;18.30;99.90;;;;;;5028708;28;20446;-71
2023/08/27 03:07:44;;;;;;;13.10;5.53;;;18.30;99.90;;;;;;5029277;28;20388;-71
2023/08/27 03:10:10;;;;;;;11.80;5.50;;;18.20;99.90;;;;;;5028709;28;20417;-70
2023/08/27 03:12:35;;;;;;;12.03;5.87;;;18.10;99.90;;;;;;5028816;28;20433;-70
2023/08/27 03:15:01;;;;;;;11.98;5.72;;;18.10;99.90;;;;;;5028642;28;20403;-71
2023/08/27 03:17:26;;;;;;;12.73;6.47;;;18.20;99.90;;;;;;5028500;28;20425;-71
2023/08/27 03:19:52;;;;;;;10.95;5.75;;;18.20;99.90;;;;;;5028309;28;20459;-71
2023/08/27 03:22:17;;;;;;;11.97;5.97;;;18.30;99.90;;;;;;5010661;28;20446;-71
2023/08/27 03:24:43;;;;;;;15.07;5.87;;;18.20;99.90;;;;;;5029342;28;20764;-71
2023/08/27 03:27:09;;;;;;;13.47;6.20;;;18.20;99.90;;;;;;5028750;28;20518;-71
2023/08/27 03:29:34;;;;;;;13.17;5.57;;;18.20;99.90;;;;;;5028008;28;20732;-71
2023/08/27 03:32:00;;;;;;;11.43;5.95;;;18.20;99.90;;;;;;5029024;28;20410;-71
2023/08/27 03:34:25;;;;;;;11.20;5.85;;;18.20;99.90;;;;;;5031230;28;20411;-71
2023/08/27 03:36:51;;;;;;;13.70;5.60;;;18.20;99.90;;;;;;5032018;28;20477;-71
2023/08/27 03:39:16;;;;;;;10.90;6.20;;;18.20;99.90;;;;;;5031988;28;20429;-71
2023/08/27 03:41:42;;;;;;;10.30;5.00;;;18.20;99.90;;;;;;5031375;28;20398;-71
2023/08/27 03:44:07;;;;;;;11.30;5.07;;;18.30;99.90;;;;;;5031839;28;20425;-71
2023/08/27 03:46:33;;;;;;;12.10;6.00;;;18.20;99.90;;;;;;5027134;28;20438;-71
2023/08/27 03:49:02;;;;;;;10.95;5.35;;;18.30;99.90;;;;;;5011931;28;20415;-71
2023/08/27 03:51:28;;;;;;;10.53;5.50;;;18.30;99.90;;;;;;5012108;28;20395;-71
2023/08/27 03:53:58;;;;;;;12.18;6.00;;;18.40;99.90;;;;;;5011938;28;20491;-71
2023/08/27 03:56:23;;;;;;;11.75;5.32;;;18.40;99.90;;;;;;5011865;28;20404;-71
2023/08/27 03:58:49;;;;;;;12.30;6.23;;;18.40;99.90;;;;;;5016164;28;20449;-71
2023/08/27 04:01:15;;;;;;;10.68;4.80;;;18.60;99.90;;;;;;5032168;28;20900;-71
2023/08/27 04:03:40;;;;;;;10.50;5.47;;;18.60;99.90;;;;;;5030853;28;20480;-71
2023/08/27 04:06:07;;;;;;;11.30;5.00;;;18.60;99.90;;;;;;5031375;28;20399;-71
2023/08/27 04:08:34;;;;;;;10.88;5.32;;;18.60;99.90;;;;;;5032066;28;20789;-71
2023/08/27 04:11:01;;;;;;;10.18;5.32;;;18.70;99.90;;;;;;5031399;28;20437;-71
2023/08/27 04:13:27;;;;;;;11.80;5.70;;;18.80;99.90;;;;;;5031512;28;20402;-71
2023/08/27 04:16:01;;;;;;;10.75;5.18;;;18.70;99.90;;;;;;5030487;28;20770;-71
2023/08/27 04:18:28;;;;;;;13.00;5.70;;;18.70;99.90;;;;;;5011002;28;20567;-71
2023/08/27 04:20:54;;;;;;;12.18;5.30;;;18.80;99.90;;;;;;5011340;28;20709;-71
2023/08/27 04:23:19;;;;;;;10.70;5.07;;;18.80;99.90;;;;;;5030836;28;20410;-71
2023/08/27 04:25:45;;;;;;;11.40;5.53;;;18.80;99.90;;;;;;5031172;28;20387;-71
2023/08/27 04:28:11;;;;;;;10.93;4.88;;;18.80;99.90;;;;;;5030513;28;20747;-71
2023/08/27 04:30:38;;;;;;;9.10;5.00;;;18.80;99.90;;;;;;5030921;28;20403;-71
2023/08/27 04:33:05;;;;;;;10.93;5.32;;;18.80;99.90;;;;;;5031062;28;20395;-71
2023/08/27 04:35:31;;;;;;;10.02;5.10;;;18.90;99.90;;;;;;5031352;28;20416;-71
2023/08/27 04:37:56;;;;;;;12.85;5.43;;;18.90;99.90;;;;;;5031114;28;20544;-71
2023/08/27 04:40:22;;;;;;;14.07;5.70;;;18.90;99.90;;;;;;5030204;28;20403;-71
2023/08/27 04:42:47;;;;;;;13.00;5.30;;;18.80;99.90;;;;;;5030741;28;20453;-71
2023/08/27 04:45:13;;;;;;;13.98;5.60;;;18.70;99.90;;;;;;5031513;28;20744;-71
2023/08/27 04:47:39;;;;;;;12.40;5.55;;;18.60;99.90;;;;;;5030722;28;20399;-71
2023/08/27 04:50:05;;;;;;;11.00;5.18;;;18.60;99.90;;;;;;5029783;28;20411;-70
2023/08/27 04:52:31;;;;;;;11.75;5.30;;;18.60;99.90;;;;;;5030784;28;20423;-71
2023/08/27 04:54:56;;;;;;;12.70;5.47;;;18.70;99.90;;;;;;5030156;28;20898;-71
2023/08/27 04:57:22;;;;;;;10.87;5.30;;;18.60;99.90;;;;;;5030598;28;20462;-71
2023/08/27 04:59:47;;;;;;;10.55;4.90;;;18.60;99.90;;;;;;5030464;28;20707;-71
2023/08/27 05:02:13;;;;;;;11.63;5.63;;;18.70;99.90;;;;;;5030228;28;20399;-71
2023/08/27 05:04:38;;;;;;;13.10;6.47;;;18.70;99.90;;;;;;5030322;28;20395;-71
2023/08/27 05:07:04;;;;;;;12.03;5.83;;;18.60;99.90;;;;;;5030293;28;20425;-71
2023/08/27 05:09:29;;;;;;;11.00;5.10;;;18.60;99.90;;;;;;5012236;28;20392;-71
2023/08/27 05:11:55;;;;;;;11.00;5.13;;;18.70;99.90;;;;;;5030311;28;20390;-71
2023/08/27 05:14:20;;;;;;;10.20;5.30;;;18.80;99.90;;;;;;5029609;28;20418;-71
2023/08/27 05:16:46;;;;;;;16.17;5.77;;;18.80;99.90;;;;;;5030355;28;20403;-71
2023/08/27 05:19:12;;;;;;;13.63;5.22;;;18.80;99.90;;;;;;5030760;28;20395;-71
2023/08/27 05:21:37;;;;;;;13.82;6.00;;;18.70;99.90;;;;;;5030216;28;20399;-70
2023/08/27 05:24:03;;;;;;;11.73;5.80;;;18.70;99.90;;;;;;5029843;28;20427;-71
2023/08/27 05:26:28;;;;;;;12.83;5.80;;;18.60;99.90;;;;;;5029459;28;20522;-71
2023/08/27 05:28:55;;;;;;;11.77;6.10;;;18.60;99.90;;;;;;5028468;28;20767;-71
2023/08/27 05:31:20;;;;;;;12.00;5.93;;;18.50;99.90;;;;;;5010006;28;20420;-71
2023/08/27 05:33:46;;;;;;;10.47;5.30;;;18.60;99.90;;;;;;5011788;28;20413;-71
2023/08/27 05:36:11;;;;;;;14.73;5.40;;;18.40;99.90;;;;;;5030048;28;20753;-71
2023/08/27 05:38:37;;;;;;;12.70;6.40;;;18.40;99.90;;;;;;5029535;28;20434;-71
2023/08/27 05:41:02;;;;;;;11.20;5.23;;;18.20;99.90;;;;;;5029193;28;20457;-71
2023/08/27 05:43:28;;;;;;;12.60;6.27;;;18.20;99.90;;;;;;5029917;28;20490;-71
2023/08/27 05:45:53;;;;;;;11.23;5.50;;;18.20;99.90;;;;;;5029598;28;20399;-71
2023/08/27 05:48:19;;;;;;;11.43;5.10;;;18.20;99.90;;;;;;5028896;28;20410;-71
2023/08/27 05:50:45;;;;;;;11.48;5.28;;;18.20;99.90;;;;;;5029942;28;20423;-71
2023/08/27 05:53:15;;;;;;;10.57;5.50;;;18.20;99.90;;;;;;5028966;28;20396;-71
2023/08/27 05:55:42;;;;;;;12.48;5.30;;;18.10;99.90;;;;;;5028500;28;20417;-71
2023/08/27 05:58:08;;;;;;;9.98;4.68;;;18.10;99.90;;;;;;5029176;28;20505;-71
2023/08/27 06:00:34;;;;;;;11.52;5.60;;;18.10;99.90;;;;;;5028895;28;20541;-71
2023/08/27 06:02:59;;;;;;;10.60;4.70;;;18.20;99.90;;;;;;5028898;28;20940;-71
2023/08/27 06:05:27;;;;;;;9.07;4.57;;;18.30;99.90;;;;;;5035181;28;22347;-71
2023/08/27 06:07:52;;;;;;;8.75;4.15;;;18.40;99.90;;;;;;5038217;28;20410;-71
2023/08/27 06:10:18;;;;;;;8.13;3.92;;;18.40;99.90;;;;;;5025195;28;20407;-71
2023/08/27 06:12:43;;;;;;;7.85;3.83;;;18.50;99.90;;;;;;5028229;28;20917;-71
2023/08/27 06:15:09;;;;;;;10.60;4.13;;;18.60;99.90;;;;;;5029055;28;20410;-71
2023/08/27 06:17:35;;;;;;;10.33;3.37;;;18.80;99.90;;;;;;5028059;28;20647;-72
2023/08/27 06:20:00;;;;;;;10.05;3.90;;;18.90;99.90;;;;;;5028073;28;20445;-75
2023/08/27 06:22:26;;;;;;;9.07;3.10;;;18.70;99.90;;;;;;5035803;28;20389;-76
2023/08/27 06:24:51;;;;;;;6.90;3.00;;;18.50;99.90;;;;;;5040061;28;20512;-75
2023/08/27 06:27:17;;;;;;;7.07;2.63;;;18.60;99.90;;;;;;5024239;28;20453;-75
2023/08/27 06:29:44;;;;;;;8.03;3.60;;;18.60;99.90;;;;;;5023415;28;20415;-75
2023/08/27 06:32:10;;;;;;;7.00;2.22;;;18.60;99.90;;;;;;5021831;28;20451;-75
2023/08/27 06:34:35;;;;;;;7.00;2.90;;;18.60;99.90;;;;;;5027461;28;20415;-75
2023/08/27 06:37:01;;;;;;;7.07;2.60;;;18.80;99.90;;;;;;5028748;28;20453;-75
2023/08/27 06:39:26;;;;;;;7.32;3.00;;;18.80;99.90;;;;;;5030082;28;20391;-75
2023/08/27 06:41:52;;;;;;;6.40;2.17;;;18.80;99.90;;;;;;5028346;28;20410;-75
2023/08/27 06:44:18;;;;;;;7.13;3.00;;;18.90;99.90;;;;;;5007672;28;20414;-75
2023/08/27 06:46:44;;;;;;;7.32;3.10;;;18.90;99.90;;;;;;5027316;28;20439;-75
2023/08/27 06:49:09;;;;;;;6.77;3.10;;;18.90;99.90;;;;;;5021569;28;20434;-78
2023/08/27 06:51:35;;;;;;;6.10;2.27;;;19.00;99.90;;;;;;5028254;28;20452;-78
2023/08/27 06:54:01;;;;;;;6.35;2.47;;;18.90;99.90;;;;;;5033234;28;20414;-77
2023/08/27 06:56:27;;;;;;;6.10;2.42;;;18.70;99.90;;;;;;5028483;28;20476;-75
2023/08/27 06:58:53;;;;;;;6.90;3.00;;;18.60;99.90;;;;;;5014779;28;20477;-74
2023/08/27 07:01:18;;;;;;;6.80;2.67;;;18.50;99.90;;;;;;5028191;28;21121;-75
2023/08/27 07:03:43;;;;;;;7.40;2.65;;;18.70;99.90;;;;;;5018611;28;20499;-75
2023/08/27 07:06:09;;;;;;;7.13;2.43;;;18.70;99.90;;;;;;4999685;28;20449;-73
2023/08/27 07:08:35;;;;;;;7.80;2.90;;;18.60;99.90;;;;;;5021885;28;20398;-75
2023/08/27 07:11:03;;;;;;;8.20;3.00;;;18.60;99.90;;;;;;5030141;28;20430;-75
2023/08/27 07:13:29;;;;;;;5.50;2.30;;;18.70;99.90;;;;;;5013607;28;20395;-76
2023/08/27 07:15:54;;;;;;;5.93;2.20;;;18.70;99.90;;;;;;5018955;28;21437;-75
2023/08/27 07:18:20;;;;;;;6.83;2.70;;;18.90;99.90;;;;;;5017942;28;20490;-76
2023/08/27 07:20:47;;;;;;;6.60;2.53;;;18.90;99.90;;;;;;5030268;28;20430;-76
2023/08/27 07:23:12;;;;;;;6.13;2.10;;;19.00;99.90;;;;;;5019223;28;20473;-77
2023/08/27 07:25:38;;;;;;;6.10;2.40;;;19.20;99.90;;;;;;5028701;28;20844;-76
2023/08/27 07:28:04;;;;;;;7.38;2.55;;;19.50;70.30;;;;;;5027523;28;20437;-76
2023/08/27 07:30:29;;;;;;;6.03;2.30;;;19.70;54.60;;;;;;5027647;28;20400;-76
2023/08/27 07:32:55;;;;;;;7.93;2.10;;;20.00;1.00;;;;;;5022571;28;20415;-76
2023/08/27 07:35:20;;;;;;;5.70;2.20;;;20.30;4.10;;;;;;5022689;28;20414;-76
2023/08/27 07:37:46;;;;;;;5.70;2.13;;;20.60;1.00;;;;;;5022842;28;20420;-76
2023/08/27 07:40:11;;;;;;;6.00;2.03;;;20.80;1.00;;;;;;5019782;28;20554;-76
2023/08/27 07:42:37;;;;;;;6.20;1.70;;;21.00;1.00;;;;;;5028614;28;20415;-77
2023/08/27 07:45:03;;;;;;;9.60;2.22;;;21.00;1.00;;;;;;5035653;28;20467;-79
2023/08/27 07:47:30;;;;;;;6.27;2.00;;;20.90;1.00;;;;;;5033742;28;20391;-79
2023/08/27 07:49:55;;;;;;;5.20;1.70;;;20.70;1.00;;;;;;5032859;28;20395;-76
2023/08/27 07:52:21;;;;;;;6.32;2.20;;;20.50;1.00;;;;;;5031689;28;20457;-76
2023/08/27 07:54:46;;;;;;;8.45;2.67;;;20.30;1.00;;;;;;5032994;28;20446;-77
2023/08/27 07:57:12;;;;;;;8.07;2.42;;;20.20;1.00;;;;;;5035682;28;20912;-77
2023/08/27 07:59:38;;;;;;;6.43;2.13;;;20.00;1.00;;;;;;5035290;28;20398;-76
2023/08/27 08:02:03;;;;;;;5.80;2.20;;;20.10;1.00;;;;;;5031444;28;20833;-76
2023/08/27 08:04:29;;;;;;;6.90;2.70;;;20.10;1.00;;;;;;5030995;28;21001;-76
2023/08/27 08:06:55;;;;;;;6.80;2.30;;;20.20;1.00;;;;;;5031431;28;20866;-76
2023/08/27 08:09:20;;;;;;;6.15;2.22;;;20.20;1.00;;;;;;5031568;28;20431;-76
2023/08/27 08:11:46;;;;;;;6.10;2.10;;;20.10;1.00;;;;;;5030808;28;20454;-76
2023/08/27 08:14:11;;;;;;;6.30;2.20;;;20.20;1.00;;;;;;5033113;28;20803;-76
2023/08/27 08:16:37;;;;;;;7.00;2.33;;;20.00;1.00;;;;;;5021847;28;20415;-76
2023/08/27 08:19:03;;;;;;;6.33;2.27;;;19.80;1.00;;;;;;5024515;28;21012;-76
2023/08/27 08:21:28;;;;;;;6.10;2.10;;;19.80;1.00;;;;;;5031558;28;20383;-76
2023/08/27 08:23:54;;;;;;;6.10;2.50;;;19.90;10.60;;;;;;5031307;28;20434;-76
2023/08/27 08:26:20;;;;;;;6.47;2.23;;;20.00;8.40;;;;;;5031109;28;20451;-76
2023/08/27 08:28:45;;;;;;;8.40;2.40;;;20.10;1.00;;;;;;5032169;28;20419;-76
2023/08/27 08:31:11;;;;;;;6.10;2.20;;;20.40;1.00;;;;;;5031177;28;20400;-77
2023/08/27 08:33:36;;;;;;;5.80;2.10;;;20.60;1.00;;;;;;5031009;28;20960;-77
2023/08/27 08:36:02;;;;;;;8.98;2.78;;;20.90;1.00;;;;;;5030508;28;20479;-77
2023/08/27 08:38:27;;;;;;;6.88;2.20;;;21.30;1.00;;;;;;5030491;28;20425;-78
2023/08/27 08:40:58;;;;;;;7.20;2.70;;;21.50;1.00;;;;;;5031294;28;20474;-78
2023/08/27 08:43:30;;;;;;;6.10;2.30;;;21.40;1.00;;;;;;5030975;28;20387;-77
2023/08/27 08:46:06;;;;;;;7.87;3.00;;;21.50;1.00;;;;;;5030697;28;20486;-77
2023/08/27 08:48:41;;;;;;;7.60;2.63;;;21.30;1.00;;;;;;5025740;28;20889;-77
2023/08/27 08:51:08;;;;;;;7.20;2.60;;;21.40;1.00;;;;;;5026496;28;20398;-77
2023/08/27 08:53:39;;;;;;;8.63;2.65;;;21.50;1.00;;;;;;5031252;28;20425;-79
2023/08/27 08:56:07;;;;;;;7.30;2.50;;;21.40;99.90;;;;;;5011329;28;20453;-79
2023/08/27 08:58:36;;;;;;;6.10;2.20;;;21.40;99.90;;;;;;5030807;28;20867;-79
2023/08/27 09:01:04;;;;;;;9.80;2.50;;;21.30;99.90;;;;;;5032530;28;20474;-79
2023/08/27 09:03:31;;;;;;;6.30;2.25;;;21.50;1.00;;;;;;5032505;28;20951;-79
2023/08/27 09:05:57;;;;;;;7.93;2.57;;;21.60;99.90;;;;;;5021428;28;20441;-79
2023/08/27 09:08:25;;;;;;;7.50;2.25;;;21.50;99.90;;;;;;5027476;28;20415;-79
2023/08/27 09:10:52;;;;;;;8.82;2.50;;;21.50;99.90;;;;;;5018256;28;20419;-79
2023/08/27 09:13:20;;;;;;;6.10;2.53;;;21.60;1.00;;;;;;5025980;28;20395;-77
2023/08/27 09:15:49;;;;;;;6.90;2.55;;;21.70;99.90;;;;;;5001829;28;20471;-77
2023/08/27 09:18:15;;;;;;;8.60;2.80;;;21.80;99.90;;;;;;5026623;28;20441;-77
2023/08/27 09:20:43;;;;;;;6.07;2.50;;;21.60;1.00;;;;;;5025722;28;20922;-78
2023/08/27 09:23:09;;;;;;;6.53;2.22;;;21.60;99.90;;;;;;5025562;28;20407;-77
2023/08/27 09:25:36;;;;;;;5.78;1.90;;;21.70;99.90;;;;;;5029393;28;20766;-77
2023/08/27 09:28:02;;;;;;;6.90;2.10;;;21.90;90.10;;;;;;5020526;28;21231;-76
2023/08/27 09:30:27;;;;;;;7.20;2.72;;;21.90;85.60;;;;;;5023650;28;20439;-76
2023/08/27 09:32:53;;;;;;;6.20;2.35;;;21.70;99.90;;;;;;5029003;28;20727;-76
2023/08/27 09:35:19;;;;;;;7.90;2.50;;;21.40;99.90;;;;;;5022277;28;20410;-77
2023/08/27 09:37:46;;;;;;;7.22;2.35;;;21.50;99.90;;;;;;5023669;28;20419;-76
2023/08/27 09:40:16;;;;;;;6.03;2.38;;;21.70;99.90;;;;;;5019437;28;20498;-76
2023/08/27 09:42:44;;;;;;;8.70;2.60;;;21.90;99.90;;;;;;5006851;28;20412;-77
2023/08/27 09:45:10;;;;;;;6.93;2.67;;;22.40;99.90;;;;;;5029958;28;20437;-76
2023/08/27 09:47:38;;;;;;;6.88;2.40;;;22.90;53.50;;;;;;5020877;28;20411;-78
2023/08/27 09:50:06;;;;;;;5.82;2.10;;;23.40;1.00;;;;;;5028792;28;20483;-77
2023/08/27 09:52:32;;;;;;;5.70;2.10;;;23.70;99.90;;;;;;5015558;28;20407;-76
2023/08/27 09:54:58;;;;;;;6.47;2.20;;;24.00;99.90;;;;;;5028141;28;20411;-75
2023/08/27 09:57:24;;;;;;;7.07;2.53;;;24.10;99.90;;;;;;5023423;28;21303;-76
2023/08/27 09:59:50;;;;;;;6.45;2.20;;;24.30;91.30;;;;;;5026423;28;20411;-76
2023/08/27 10:02:16;;;;;;;8.30;2.22;;;24.10;1.00;;;;;;5023758;28;20407;-77
2023/08/27 10:04:56;;;;;;;6.72;2.45;;;24.50;99.90;;;;;;5027767;28;20913;-76
2023/08/27 10:07:23;;;;;;;6.65;2.33;;;24.50;99.90;;;;;;5012603;28;20418;-75
2023/08/27 10:09:53;;;;;;;7.60;2.00;;;24.60;99.90;;;;;;5024739;28;20410;-76
2023/08/27 10:12:20;;;;;;;6.45;2.30;;;24.60;99.90;;;;;;5021747;28;20454;-75
2023/08/27 10:14:46;;;;;;;8.80;2.30;;;24.40;99.90;;;;;;5024000;28;21005;-75
2023/08/27 10:17:13;;;;;;;6.22;2.10;;;24.70;99.90;;;;;;5027701;28;20901;-76
2023/08/27 10:19:39;;;;;;;6.20;2.20;;;24.90;99.90;;;;;;5003350;28;20518;-76
2023/08/27 10:22:05;;;;;;;6.22;2.20;;;25.40;99.90;;;;;;5016136;28;20383;-76
2023/08/27 10:24:31;;;;;;;6.30;1.90;;;25.30;1.00;;;;;;5018184;28;20822;-75
2023/08/27 10:27:01;;;;;;;6.00;1.92;;;24.90;1.00;;;;;;5019223;28;20503;-76
2023/08/27 10:29:28;;;;;;;7.60;2.20;;;24.40;1.00;;;;;;5020297;28;20424;-76
2023/08/27 10:31:55;;;;;;;10.27;2.38;;;;;;;;;;5024723;28;20407;-76
2023/08/27 10:34:27;;;;;;;5.90;1.80;;;;;;;;;;5018719;28;20412;-76
2023/08/27 10:36:54;;;;;;;7.80;4.20;;;25.70;1.00;;;;;;5009478;28;20410;-77
2023/08/27 10:39:25;;;;;;;7.85;2.40;;;26.90;1.00;;;;;;5011421;28;20412;-78
2023/08/27 10:41:50;;;;;;;6.18;2.05;;;27.50;1.00;;;;;;5032465;28;20379;-77
2023/08/27 10:44:19;;;;;;;7.10;2.10;;;27.70;1.00;;;;;;5030732;28;20749;-77
2023/08/27 10:47:13;;;;;;;7.25;2.30;;;27.40;1.00;;;;;;5032033;28;21030;-76
2023/08/27 10:49:40;;;;;;;6.80;1.60;;;27.70;1.00;;;;;;5024933;28;20447;-77
2023/08/27 10:52:18;;;;;;;6.25;1.90;;;27.30;1.00;;;;;;5013551;28;20521;-78
2023/08/27 10:54:47;;;;;;;6.30;2.10;;;26.80;1.00;;;;;;5030245;28;20491;-77
2023/08/27 10:57:22;;;;;;;7.97;2.88;;;26.40;1.00;;;;;;5014660;28;20463;-78
2023/08/27 10:59:48;;;;;;;6.82;2.00;;;26.20;1.00;;;;;;5029055;28;20897;-78
2023/08/27 11:02:16;;;;;;;6.68;2.00;;;25.80;1.00;;;;;;5018380;28;20409;-77
2023/08/27 11:04:46;;;;;;;6.85;2.33;;;25.50;1.00;;;;;;5016901;28;20419;-76
2023/08/27 11:07:17;;;;;;;8.32;2.70;;;25.00;1.00;;;;;;5035273;28;20422;-76
2023/08/27 11:09:49;;;;;;;7.00;2.30;;;24.80;1.00;;;;;;5034453;28;20809;-76
2023/08/27 11:12:34;;;;;;;8.13;2.23;;;24.80;1.00;;;;;;5035069;28;20406;-76
2023/08/27 11:15:14;;;;;;;5.60;1.88;;;24.90;1.00;;;;;;5030701;28;20418;-77
2023/08/27 11:17:41;;;;;;;6.93;2.50;;;25.00;1.00;;;;;;5026693;28;20428;-76
2023/08/27 11:20:28;;;;;;;7.40;2.65;;;24.80;1.00;;;;;;5029426;28;20439;-76
2023/08/27 11:23:01;;;;;;;7.80;2.65;;;24.30;1.00;;;;;;5027795;28;20409;-75
2023/08/27 11:25:29;;;;;;;6.80;2.00;;;24.30;1.00;;;;;;5032439;28;20711;-75
2023/08/27 11:27:58;;;;;;;7.10;2.33;;;24.30;1.00;;;;;;5026442;28;20412;-76
2023/08/27 11:30:24;;;;;;;6.70;1.85;;;24.30;1.00;;;;;;5027316;28;21011;-76
2023/08/27 11:32:50;;;;;;;7.50;2.20;;;24.30;1.00;;;;;;5024357;28;20412;-76
2023/08/27 11:35:26;;;;;;;5.60;1.70;;;23.80;1.00;;;;;;5021943;28;20897;-75
2023/08/27 11:37:53;;;;;;;8.00;2.60;;;23.90;1.00;;;;;;5034279;28;21009;-76
2023/08/27 11:40:19;;;;;;;6.57;2.10;;;24.10;1.00;;;;;;5023213;28;20497;-75
2023/08/27 11:42:52;;;;;;;6.25;2.00;;;24.10;1.00;;;;;;5024037;28;20911;-76
2023/08/27 11:45:31;;;;;;;7.33;2.10;;;24.30;1.00;;;;;;5033274;28;20399;-75
2023/08/27 11:48:05;;;;;;;6.80;1.90;;;24.60;1.00;;;;;;5032262;28;20411;-75
2023/08/27 11:50:40;;;;;;;6.60;2.10;;;24.80;1.00;;;;;;5033737;28;20418;-77
2023/08/27 11:53:05;;;;;;;9.40;1.85;;;24.30;1.00;;;;;;5024101;28;20401;-76
2023/08/27 11:55:31;;;;;;;7.70;2.00;;;24.20;1.00;;;;;;5028875;28;20485;-75
2023/08/27 11:57:58;;;;;;;6.43;2.20;;;24.10;1.00;;;;;;5031259;28;20469;-76
2023/08/27 12:00:23;;;;;;;10.30;1.90;;;24.00;1.00;;;;;;5025289;28;20916;-76
2023/08/27 12:02:49;;;;;;;6.50;1.90;;;24.20;1.00;;;;;;5013915;28;20494;-77
2023/08/27 12:05:15;;;;;;;5.28;1.42;;;24.60;1.00;;;;;;5031182;28;20407;-76
2023/08/27 12:07:41;;;;;;;5.40;1.67;;;24.60;1.00;;;;;;5012984;28;20542;-76
2023/08/27 12:10:09;;;;;;;6.00;2.00;;;24.50;1.00;;;;;;5020364;28;21018;-75
2023/08/27 12:12:43;;;;;;;6.10;1.88;;;24.40;1.00;;;;;;5022120;28;20813;-76
2023/08/27 12:15:09;;;;;;;5.67;1.67;;;23.80;1.00;;;;;;5030812;28;20399;-76
2023/08/27 12:17:36;;;;;;;7.10;1.70;;;23.80;1.00;;;;;;5025176;28;20923;-75
2023/08/27 12:20:07;;;;;;;6.00;1.70;;;24.00;1.00;;;;;;5030880;28;20927;-76
2023/08/27 12:22:43;;;;;;;5.90;1.77;;;24.20;1.00;;;;;;5017077;28;20499;-76
2023/08/27 12:25:09;;;;;;;5.70;1.60;;;24.30;1.00;;;;;;5017717;28;20427;-77
2023/08/27 12:27:35;;;;;;;5.80;1.45;;;24.30;1.00;;;;;;5013635;28;20395;-76
2023/08/27 12:30:04;;;;;;;6.13;1.67;;;24.10;1.00;;;;;;5019714;28;20417;-75
2023/08/27 12:32:34;;;;;;;6.30;1.55;;;24.00;1.00;;;;;;5022038;28;20435;-76
2023/08/27 12:35:01;;;;;;;6.45;1.75;;;23.90;1.00;;;;;;5026123;28;20943;-75
2023/08/27 12:37:27;;;;;;;6.60;1.92;;;23.90;1.00;;;;;;5029068;28;20434;-76
2023/08/27 12:39:53;;;;;;;6.32;1.60;;;23.90;1.00;;;;;;4995802;28;20500;-75
2023/08/27 12:42:18;;;;;;;6.10;1.90;;;23.90;1.00;;;;;;5017364;28;20404;-76
2023/08/27 12:44:44;;;;;;;5.60;1.50;;;24.00;1.00;;;;;;5017500;28;20408;-76
2023/08/27 12:47:13;;;;;;;7.40;2.00;;;24.00;1.00;;;;;;5028559;28;20395;-76